Duluth, MN (55811)

3:13 PM CDT on September 04, 2015 (GMT -0500)
Duluth International | | Change Station
CLOSE
Current Station
Airport
Location: Duluth,
Elevation: 1427 ft
Nearby Weather Stations
Active Advisory: Beach Hazard Statement

Elev 1427 ft 46.84 °N, 92.19 °W | Updated 18 minutes ago

Partly Cloudy
Partly Cloudy
76 °F
Feels Like 76 °F
N
14
Wind Variable Wind from East

Today
High -- | Low -- °F
--% Chance of Precip.
Yesterday
High -- | Low -- °F
Precip. -- in
6:32 AM 7:42 PM
Waning Gibbous, 56% visible
Pressure 29.98 in
Visibility 10.0 miles
Clouds Few 6500 ft
Dew Point 65 °F
Humidity 69%
Rainfall 0.00 in
Snow Depth Not available.
UV 6 out of 12
Pollen 8.30 out of 12
Air Quality Not available.
Flu Activity Not available.
METAR KDLH 041955Z 10012KT 10SM FEW065 24/18 A2998 RMK AO2 SLP151 T02440183
Pressure 29.98 in
Visibility 10.0 miles
Clouds Few 6500 ft
Dew Point 65 °F
Humidity 69%
Rainfall 0.00 in
Snow Depth Not available.
UV 6 out of 12
Pollen 8.30 out of 12
Air Quality Not available.
Flu Activity Not available.
METAR KDLH 041955Z 10012KT 10SM FEW065 24/18 A2998 RMK AO2 SLP151 T02440183

10-Day Weather Forecast

×

Almanac

Astronomy

Sep. 04, 2015 Rise Set
Actual Time
Civil Twilight
Nautical Twilight
Astronomical Twilight
Moon
Length of Visible Light
Length of Day
Tomorrow will be .
, % of the Moon is Illuminated

Today's Extremes

State Highs State Lows

Community

WunderPhotos

Upload Photos

1,852,273 photos uploaded!

WunderBlogs® & News

Nearby

Air Quality

  Air Quality AQ Index Pollutant
Not available.

Snow Depth

Station Depth Elevation

Earthquake Activity

City Distance Mag. Time & Date
Minimum magnitude displayed is 2.5.

Coastal Water Temperatures

Place Temperature

Stations

Nearby Weather Stations

Station Location Temp. Windchill Dew Point Humidity Wind Precip. Elev Updated Type
                   
Beach Hazard Statement
Statement as of 9:45 AM CDT on September 04, 2015

... Beach hazards statement now in effect until 8 PM CDT this
evening...

* location... Park Point beach

* dangerous swimming conditions are expected along the Lake
Superior shoreline due to high wave action and strong rip
currents.

* High wave action alone can make swimming difficult on days
such as this. Incoming waves in rapid succession can tire a
swimmer quickly.

Precautionary/preparedness actions...

Rip currents are powerful channels of water flowing quickly away
from shore... which occur most often at low spots in sandbars...
near shoreline structures such as peninsulas or breakwalls... and
near river mouths.

For additional safety information and precautions... please visit
www.Weather.Gov/Duluth